sensor_id;sensor_type;location;lat;lon;timestamp;P1;durP1;ratioP1;P2;durP2;ratioP2
40707;SDS011;26392;42.696;23.350;2023-04-03T00:01:34;34.42;;;15.85;;
40707;SDS011;26392;42.696;23.350;2023-04-03T00:04:00;32.03;;;14.82;;
40707;SDS011;26392;42.696;23.350;2023-04-03T00:06:25;32.22;;;14.55;;
40707;SDS011;26392;42.696;23.350;2023-04-03T00:08:51;39.47;;;16.35;;
40707;SDS011;26392;42.696;23.350;2023-04-03T00:11:17;32.35;;;15.68;;
40707;SDS011;26392;42.696;23.350;2023-04-03T00:13:43;27.17;;;14.05;;
40707;SDS011;26392;42.696;23.350;2023-04-03T00:16:10;26.25;;;13.52;;
40707;SDS011;26392;42.696;23.350;2023-04-03T00:18:37;33.63;;;15.20;;
40707;SDS011;26392;42.696;23.350;2023-04-03T00:21:03;29.25;;;14.63;;
40707;SDS011;26392;42.696;23.350;2023-04-03T00:23:29;37.25;;;14.75;;
40707;SDS011;26392;42.696;23.350;2023-04-03T00:25:54;29.77;;;13.55;;
40707;SDS011;26392;42.696;23.350;2023-04-03T00:28:20;28.20;;;14.85;;
40707;SDS011;26392;42.696;23.350;2023-04-03T00:30:46;31.00;;;14.35;;
40707;SDS011;26392;42.696;23.350;2023-04-03T00:33:14;29.63;;;13.90;;
40707;SDS011;26392;42.696;23.350;2023-04-03T00:35:40;32.33;;;15.30;;
40707;SDS011;26392;42.696;23.350;2023-04-03T00:38:05;35.53;;;16.63;;
40707;SDS011;26392;42.696;23.350;2023-04-03T00:40:35;33.67;;;16.00;;
40707;SDS011;26392;42.696;23.350;2023-04-03T00:43:05;26.10;;;15.63;;
40707;SDS011;26392;42.696;23.350;2023-04-03T00:45:40;29.80;;;15.40;;
40707;SDS011;26392;42.696;23.350;2023-04-03T00:48:08;37.10;;;17.13;;
40707;SDS011;26392;42.696;23.350;2023-04-03T00:50:38;22.80;;;12.25;;
40707;SDS011;26392;42.696;23.350;2023-04-03T00:53:06;26.65;;;12.25;;
40707;SDS011;26392;42.696;23.350;2023-04-03T00:55:36;26.95;;;13.65;;
40707;SDS011;26392;42.696;23.350;2023-04-03T00:58:03;18.70;;;11.82;;
40707;SDS011;26392;42.696;23.350;2023-04-03T01:00:32;31.50;;;14.52;;
40707;SDS011;26392;42.696;23.350;2023-04-03T01:02:58;30.27;;;14.57;;
40707;SDS011;26392;42.696;23.350;2023-04-03T01:05:23;32.22;;;13.65;;
40707;SDS011;26392;42.696;23.350;2023-04-03T01:07:49;17.58;;;9.93;;
40707;SDS011;26392;42.696;23.350;2023-04-03T01:10:16;18.33;;;8.63;;
40707;SDS011;26392;42.696;23.350;2023-04-03T01:12:45;19.58;;;8.43;;
40707;SDS011;26392;42.696;23.350;2023-04-03T01:15:16;18.67;;;10.18;;
40707;SDS011;26392;42.696;23.350;2023-04-03T01:17:51;17.33;;;9.68;;
40707;SDS011;26392;42.696;23.350;2023-04-03T01:23:12;14.73;;;6.15;;
40707;SDS011;26392;42.696;23.350;2023-04-03T01:25:50;13.00;;;6.43;;
40707;SDS011;26392;42.696;23.350;2023-04-03T01:28:28;12.07;;;5.38;;
40707;SDS011;26392;42.696;23.350;2023-04-03T01:34:11;18.80;;;5.32;;
40707;SDS011;26392;42.696;23.350;2023-04-03T01:36:37;7.45;;;4.25;;
40707;SDS011;26392;42.696;23.350;2023-04-03T01:39:02;9.30;;;4.15;;
40707;SDS011;26392;42.696;23.350;2023-04-03T01:41:28;7.35;;;4.60;;
40707;SDS011;26392;42.696;23.350;2023-04-03T01:43:54;11.07;;;5.55;;
40707;SDS011;26392;42.696;23.350;2023-04-03T01:46:20;9.63;;;5.35;;
40707;SDS011;26392;42.696;23.350;2023-04-03T01:48:46;9.48;;;4.03;;
40707;SDS011;26392;42.696;23.350;2023-04-03T01:51:11;5.28;;;3.45;;
40707;SDS011;26392;42.696;23.350;2023-04-03T01:53:37;6.05;;;3.53;;
40707;SDS011;26392;42.696;23.350;2023-04-03T01:56:03;9.38;;;4.75;;
40707;SDS011;26392;42.696;23.350;2023-04-03T01:58:29;15.57;;;6.10;;
40707;SDS011;26392;42.696;23.350;2023-04-03T02:00:54;12.77;;;6.13;;
40707;SDS011;26392;42.696;23.350;2023-04-03T02:03:20;10.30;;;5.10;;
40707;SDS011;26392;42.696;23.350;2023-04-03T02:05:46;13.20;;;5.93;;
40707;SDS011;26392;42.696;23.350;2023-04-03T02:08:11;13.77;;;6.07;;
40707;SDS011;26392;42.696;23.350;2023-04-03T02:10:37;11.27;;;5.88;;
40707;SDS011;26392;42.696;23.350;2023-04-03T02:13:03;5.53;;;3.22;;
40707;SDS011;26392;42.696;23.350;2023-04-03T02:15:28;10.63;;;3.45;;
40707;SDS011;26392;42.696;23.350;2023-04-03T02:17:54;5.65;;;2.70;;
40707;SDS011;26392;42.696;23.350;2023-04-03T02:20:20;7.00;;;3.28;;
40707;SDS011;26392;42.696;23.350;2023-04-03T02:22:45;7.30;;;3.53;;
40707;SDS011;26392;42.696;23.350;2023-04-03T02:25:11;8.15;;;3.88;;
40707;SDS011;26392;42.696;23.350;2023-04-03T02:27:37;5.63;;;3.35;;
40707;SDS011;26392;42.696;23.350;2023-04-03T02:30:03;12.38;;;3.55;;
40707;SDS011;26392;42.696;23.350;2023-04-03T02:32:30;7.60;;;3.88;;
40707;SDS011;26392;42.696;23.350;2023-04-03T02:34:55;9.35;;;3.85;;
40707;SDS011;26392;42.696;23.350;2023-04-03T02:37:21;7.28;;;4.07;;
40707;SDS011;26392;42.696;23.350;2023-04-03T02:39:46;6.00;;;3.28;;
40707;SDS011;26392;42.696;23.350;2023-04-03T02:42:11;14.25;;;4.50;;
40707;SDS011;26392;42.696;23.350;2023-04-03T02:44:37;7.45;;;3.63;;
40707;SDS011;26392;42.696;23.350;2023-04-03T02:47:04;7.80;;;4.03;;
40707;SDS011;26392;42.696;23.350;2023-04-03T02:49:30;10.70;;;4.05;;
40707;SDS011;26392;42.696;23.350;2023-04-03T02:51:55;6.97;;;4.07;;
40707;SDS011;26392;42.696;23.350;2023-04-03T02:54:21;7.00;;;3.92;;
40707;SDS011;26392;42.696;23.350;2023-04-03T02:56:48;8.43;;;4.72;;
40707;SDS011;26392;42.696;23.350;2023-04-03T02:59:14;11.65;;;5.18;;
40707;SDS011;26392;42.696;23.350;2023-04-03T03:01:39;7.15;;;3.78;;
40707;SDS011;26392;42.696;23.350;2023-04-03T03:04:05;6.40;;;3.97;;
40707;SDS011;26392;42.696;23.350;2023-04-03T03:06:30;11.05;;;5.00;;
40707;SDS011;26392;42.696;23.350;2023-04-03T03:08:55;12.57;;;4.85;;
40707;SDS011;26392;42.696;23.350;2023-04-03T03:11:21;11.68;;;4.95;;
40707;SDS011;26392;42.696;23.350;2023-04-03T03:13:46;9.05;;;4.40;;
40707;SDS011;26392;42.696;23.350;2023-04-03T03:16:12;12.35;;;5.05;;
40707;SDS011;26392;42.696;23.350;2023-04-03T03:18:37;11.75;;;5.65;;
40707;SDS011;26392;42.696;23.350;2023-04-03T03:21:03;13.85;;;5.35;;
40707;SDS011;26392;42.696;23.350;2023-04-03T03:23:30;12.65;;;5.55;;
40707;SDS011;26392;42.696;23.350;2023-04-03T03:25:58;12.40;;;6.15;;
40707;SDS011;26392;42.696;23.350;2023-04-03T03:28:25;13.00;;;6.13;;
40707;SDS011;26392;42.696;23.350;2023-04-03T03:30:51;13.90;;;7.03;;
40707;SDS011;26392;42.696;23.350;2023-04-03T03:33:17;14.40;;;6.55;;
40707;SDS011;26392;42.696;23.350;2023-04-03T03:35:43;11.38;;;6.47;;
40707;SDS011;26392;42.696;23.350;2023-04-03T03:38:08;17.08;;;7.13;;
40707;SDS011;26392;42.696;23.350;2023-04-03T03:40:34;15.25;;;7.25;;
40707;SDS011;26392;42.696;23.350;2023-04-03T03:43:00;15.75;;;7.00;;
40707;SDS011;26392;42.696;23.350;2023-04-03T03:45:25;16.73;;;8.18;;
40707;SDS011;26392;42.696;23.350;2023-04-03T03:47:51;23.70;;;10.15;;
40707;SDS011;26392;42.696;23.350;2023-04-03T03:50:16;24.10;;;10.93;;
40707;SDS011;26392;42.696;23.350;2023-04-03T03:52:42;20.92;;;10.23;;
40707;SDS011;26392;42.696;23.350;2023-04-03T03:55:07;26.75;;;12.40;;
40707;SDS011;26392;42.696;23.350;2023-04-03T03:57:33;22.40;;;9.73;;
40707;SDS011;26392;42.696;23.350;2023-04-03T03:59:58;21.02;;;9.55;;
40707;SDS011;26392;42.696;23.350;2023-04-03T04:02:23;19.25;;;8.63;;
40707;SDS011;26392;42.696;23.350;2023-04-03T04:04:49;21.75;;;8.77;;
40707;SDS011;26392;42.696;23.350;2023-04-03T04:07:14;22.35;;;9.63;;
40707;SDS011;26392;42.696;23.350;2023-04-03T04:09:40;17.60;;;9.15;;
40707;SDS011;26392;42.696;23.350;2023-04-03T04:12:05;28.38;;;12.25;;
40707;SDS011;26392;42.696;23.350;2023-04-03T04:14:31;24.80;;;10.07;;
40707;SDS011;26392;42.696;23.350;2023-04-03T04:16:56;23.73;;;10.77;;
40707;SDS011;26392;42.696;23.350;2023-04-03T04:19:22;21.70;;;9.75;;
40707;SDS011;26392;42.696;23.350;2023-04-03T04:21:47;22.48;;;11.02;;
40707;SDS011;26392;42.696;23.350;2023-04-03T04:24:13;19.33;;;9.70;;
40707;SDS011;26392;42.696;23.350;2023-04-03T04:26:38;22.13;;;9.45;;
40707;SDS011;26392;42.696;23.350;2023-04-03T04:29:03;19.40;;;9.43;;
40707;SDS011;26392;42.696;23.350;2023-04-03T04:31:29;28.48;;;11.50;;
40707;SDS011;26392;42.696;23.350;2023-04-03T04:33:54;29.27;;;11.52;;
40707;SDS011;26392;42.696;23.350;2023-04-03T04:36:20;26.77;;;10.85;;
40707;SDS011;26392;42.696;23.350;2023-04-03T04:38:45;24.40;;;10.15;;
40707;SDS011;26392;42.696;23.350;2023-04-03T04:41:11;22.08;;;10.40;;
40707;SDS011;26392;42.696;23.350;2023-04-03T04:43:36;22.83;;;9.73;;
40707;SDS011;26392;42.696;23.350;2023-04-03T04:48:31;18.90;;;8.77;;
40707;SDS011;26392;42.696;23.350;2023-04-03T04:50:57;26.40;;;9.00;;
40707;SDS011;26392;42.696;23.350;2023-04-03T04:53:23;20.17;;;9.05;;
40707;SDS011;26392;42.696;23.350;2023-04-03T04:55:48;20.35;;;8.52;;
40707;SDS011;26392;42.696;23.350;2023-04-03T04:58:14;17.17;;;8.90;;
40707;SDS011;26392;42.696;23.350;2023-04-03T05:00:39;24.17;;;11.25;;
40707;SDS011;26392;42.696;23.350;2023-04-03T05:03:05;16.90;;;8.75;;
40707;SDS011;26392;42.696;23.350;2023-04-03T05:05:30;25.33;;;9.95;;
40707;SDS011;26392;42.696;23.350;2023-04-03T05:07:56;21.60;;;10.40;;
40707;SDS011;26392;42.696;23.350;2023-04-03T05:10:21;23.60;;;9.07;;
40707;SDS011;26392;42.696;23.350;2023-04-03T05:12:47;29.05;;;9.95;;
40707;SDS011;26392;42.696;23.350;2023-04-03T05:15:12;25.73;;;10.75;;
40707;SDS011;26392;42.696;23.350;2023-04-03T05:17:37;19.13;;;9.50;;
40707;SDS011;26392;42.696;23.350;2023-04-03T05:20:03;27.20;;;9.80;;
40707;SDS011;26392;42.696;23.350;2023-04-03T05:22:29;17.45;;;9.15;;
40707;SDS011;26392;42.696;23.350;2023-04-03T05:24:55;22.83;;;10.40;;
40707;SDS011;26392;42.696;23.350;2023-04-03T05:27:20;24.15;;;10.55;;
40707;SDS011;26392;42.696;23.350;2023-04-03T05:29:48;22.92;;;9.55;;
40707;SDS011;26392;42.696;23.350;2023-04-03T05:32:13;20.42;;;9.73;;
40707;SDS011;26392;42.696;23.350;2023-04-03T05:34:39;22.42;;;9.63;;
40707;SDS011;26392;42.696;23.350;2023-04-03T05:37:05;30.75;;;11.73;;
40707;SDS011;26392;42.696;23.350;2023-04-03T05:39:30;32.20;;;12.40;;
40707;SDS011;26392;42.696;23.350;2023-04-03T05:41:56;47.33;;;18.80;;
40707;SDS011;26392;42.696;23.350;2023-04-03T05:44:22;42.70;;;19.98;;
40707;SDS011;26392;42.696;23.350;2023-04-03T05:46:47;41.38;;;17.45;;
40707;SDS011;26392;42.696;23.350;2023-04-03T05:49:13;48.25;;;18.17;;
40707;SDS011;26392;42.696;23.350;2023-04-03T05:51:38;27.35;;;13.93;;
40707;SDS011;26392;42.696;23.350;2023-04-03T05:54:16;26.35;;;12.57;;
40707;SDS011;26392;42.696;23.350;2023-04-03T05:56:42;22.27;;;10.45;;
40707;SDS011;26392;42.696;23.350;2023-04-03T05:59:08;28.77;;;11.13;;
40707;SDS011;26392;42.696;23.350;2023-04-03T06:01:33;24.38;;;11.35;;
40707;SDS011;26392;42.696;23.350;2023-04-03T06:03:59;28.80;;;13.80;;
40707;SDS011;26392;42.696;23.350;2023-04-03T06:06:24;33.55;;;14.50;;
40707;SDS011;26392;42.696;23.350;2023-04-03T06:08:50;36.33;;;15.98;;
40707;SDS011;26392;42.696;23.350;2023-04-03T06:11:16;32.60;;;16.25;;
40707;SDS011;26392;42.696;23.350;2023-04-03T06:13:42;30.08;;;15.20;;
40707;SDS011;26392;42.696;23.350;2023-04-03T06:16:09;29.65;;;16.23;;
40707;SDS011;26392;42.696;23.350;2023-04-03T06:18:37;31.83;;;15.07;;
40707;SDS011;26392;42.696;23.350;2023-04-03T06:21:02;32.58;;;15.75;;
40707;SDS011;26392;42.696;23.350;2023-04-03T06:23:29;32.17;;;16.20;;
40707;SDS011;26392;42.696;23.350;2023-04-03T06:25:55;32.53;;;16.15;;
40707;SDS011;26392;42.696;23.350;2023-04-03T06:28:20;28.17;;;14.43;;
40707;SDS011;26392;42.696;23.350;2023-04-03T06:30:46;40.97;;;17.88;;
40707;SDS011;26392;42.696;23.350;2023-04-03T06:33:11;44.92;;;17.48;;
40707;SDS011;26392;42.696;23.350;2023-04-03T06:35:37;34.42;;;16.42;;
40707;SDS011;26392;42.696;23.350;2023-04-03T06:38:03;36.33;;;15.27;;
40707;SDS011;26392;42.696;23.350;2023-04-03T06:40:34;34.42;;;16.02;;
40707;SDS011;26392;42.696;23.350;2023-04-03T06:42:59;28.85;;;14.38;;
40707;SDS011;26392;42.696;23.350;2023-04-03T06:45:25;27.98;;;13.50;;
40707;SDS011;26392;42.696;23.350;2023-04-03T06:47:50;29.25;;;13.80;;
40707;SDS011;26392;42.696;23.350;2023-04-03T06:50:16;24.52;;;14.52;;
40707;SDS011;26392;42.696;23.350;2023-04-03T06:52:41;32.47;;;14.52;;
40707;SDS011;26392;42.696;23.350;2023-04-03T06:55:07;35.15;;;14.23;;
40707;SDS011;26392;42.696;23.350;2023-04-03T06:57:34;25.15;;;13.65;;
40707;SDS011;26392;42.696;23.350;2023-04-03T07:00:00;26.60;;;14.45;;
40707;SDS011;26392;42.696;23.350;2023-04-03T07:02:26;29.88;;;14.73;;
40707;SDS011;26392;42.696;23.350;2023-04-03T07:04:52;24.27;;;12.00;;
40707;SDS011;26392;42.696;23.350;2023-04-03T07:07:17;21.95;;;12.00;;
40707;SDS011;26392;42.696;23.350;2023-04-03T07:09:43;24.17;;;12.40;;
40707;SDS011;26392;42.696;23.350;2023-04-03T07:12:08;20.73;;;10.98;;
40707;SDS011;26392;42.696;23.350;2023-04-03T07:14:34;24.40;;;10.95;;
40707;SDS011;26392;42.696;23.350;2023-04-03T07:16:59;24.00;;;12.43;;
40707;SDS011;26392;42.696;23.350;2023-04-03T07:19:25;22.58;;;11.25;;
40707;SDS011;26392;42.696;23.350;2023-04-03T07:21:53;26.77;;;12.48;;
40707;SDS011;26392;42.696;23.350;2023-04-03T07:24:18;30.05;;;11.48;;
40707;SDS011;26392;42.696;23.350;2023-04-03T07:26:44;29.50;;;13.15;;
40707;SDS011;26392;42.696;23.350;2023-04-03T07:29:10;24.85;;;13.00;;
40707;SDS011;26392;42.696;23.350;2023-04-03T07:31:35;26.65;;;13.57;;
40707;SDS011;26392;42.696;23.350;2023-04-03T07:34:01;24.58;;;14.02;;
40707;SDS011;26392;42.696;23.350;2023-04-03T07:36:28;23.33;;;12.40;;
40707;SDS011;26392;42.696;23.350;2023-04-03T07:38:54;30.42;;;13.05;;
40707;SDS011;26392;42.696;23.350;2023-04-03T07:41:19;28.70;;;13.35;;
40707;SDS011;26392;42.696;23.350;2023-04-03T07:43:47;29.67;;;12.80;;
40707;SDS011;26392;42.696;23.350;2023-04-03T07:46:14;20.23;;;11.30;;
40707;SDS011;26392;42.696;23.350;2023-04-03T07:48:40;22.40;;;11.65;;
40707;SDS011;26392;42.696;23.350;2023-04-03T07:51:05;22.15;;;12.35;;
40707;SDS011;26392;42.696;23.350;2023-04-03T07:53:31;23.67;;;12.05;;
40707;SDS011;26392;42.696;23.350;2023-04-03T07:55:58;25.33;;;12.63;;
40707;SDS011;26392;42.696;23.350;2023-04-03T07:58:24;16.80;;;10.85;;
40707;SDS011;26392;42.696;23.350;2023-04-03T08:00:50;20.75;;;10.80;;
40707;SDS011;26392;42.696;23.350;2023-04-03T08:03:16;24.92;;;11.95;;
40707;SDS011;26392;42.696;23.350;2023-04-03T08:05:43;25.67;;;11.57;;
40707;SDS011;26392;42.696;23.350;2023-04-03T08:08:12;19.70;;;10.52;;
40707;SDS011;26392;42.696;23.350;2023-04-03T08:10:40;17.85;;;10.27;;
40707;SDS011;26392;42.696;23.350;2023-04-03T08:13:06;27.77;;;11.02;;
40707;SDS011;26392;42.696;23.350;2023-04-03T08:15:32;28.90;;;11.60;;
40707;SDS011;26392;42.696;23.350;2023-04-03T08:17:58;16.23;;;10.10;;
40707;SDS011;26392;42.696;23.350;2023-04-03T08:20:25;19.40;;;9.13;;
40707;SDS011;26392;42.696;23.350;2023-04-03T08:22:51;20.45;;;9.32;;
40707;SDS011;26392;42.696;23.350;2023-04-03T08:25:17;19.75;;;10.70;;
40707;SDS011;26392;42.696;23.350;2023-04-03T08:27:43;17.20;;;9.10;;
40707;SDS011;26392;42.696;23.350;2023-04-03T08:30:08;26.77;;;9.65;;
40707;SDS011;26392;42.696;23.350;2023-04-03T08:32:34;21.63;;;10.05;;
40707;SDS011;26392;42.696;23.350;2023-04-03T08:35:01;22.42;;;10.88;;
40707;SDS011;26392;42.696;23.350;2023-04-03T08:37:27;23.90;;;11.25;;
40707;SDS011;26392;42.696;23.350;2023-04-03T08:39:52;23.23;;;11.73;;
40707;SDS011;26392;42.696;23.350;2023-04-03T08:50:39;23.88;;;11.15;;
40707;SDS011;26392;42.696;23.350;2023-04-03T08:55:51;15.80;;;9.00;;
40707;SDS011;26392;42.696;23.350;2023-04-03T09:01:02;23.33;;;11.88;;
40707;SDS011;26392;42.696;23.350;2023-04-03T09:03:33;23.23;;;11.30;;
40707;SDS011;26392;42.696;23.350;2023-04-03T09:06:04;19.80;;;9.40;;
40707;SDS011;26392;42.696;23.350;2023-04-03T09:08:51;16.23;;;8.93;;
40707;SDS011;26392;42.696;23.350;2023-04-03T09:19:33;22.58;;;10.40;;
40707;SDS011;26392;42.696;23.350;2023-04-03T09:22:17;24.35;;;9.00;;
40707;SDS011;26392;42.696;23.350;2023-04-03T09:24:47;18.17;;;9.43;;
40707;SDS011;26392;42.696;23.350;2023-04-03T09:27:37;22.40;;;10.27;;
40707;SDS011;26392;42.696;23.350;2023-04-03T09:30:03;17.67;;;10.32;;
40707;SDS011;26392;42.696;23.350;2023-04-03T09:34:57;17.05;;;10.82;;
40707;SDS011;26392;42.696;23.350;2023-04-03T09:37:44;21.08;;;10.43;;
40707;SDS011;26392;42.696;23.350;2023-04-03T09:42:51;21.85;;;11.13;;
40707;SDS011;26392;42.696;23.350;2023-04-03T09:50:30;20.25;;;11.38;;
40707;SDS011;26392;42.696;23.350;2023-04-03T09:52:56;26.70;;;12.60;;
40707;SDS011;26392;42.696;23.350;2023-04-03T09:55:30;19.83;;;11.00;;
40707;SDS011;26392;42.696;23.350;2023-04-03T09:57:57;20.70;;;11.93;;
40707;SDS011;26392;42.696;23.350;2023-04-03T10:00:28;19.90;;;11.15;;
40707;SDS011;26392;42.696;23.350;2023-04-03T10:02:58;14.38;;;9.77;;
40707;SDS011;26392;42.696;23.350;2023-04-03T10:05:40;18.42;;;9.30;;
40707;SDS011;26392;42.696;23.350;2023-04-03T10:10:38;16.80;;;10.00;;
40707;SDS011;26392;42.696;23.350;2023-04-03T10:13:07;15.77;;;9.52;;
40707;SDS011;26392;42.696;23.350;2023-04-03T10:15:39;18.73;;;10.27;;
40707;SDS011;26392;42.696;23.350;2023-04-03T10:21:10;16.27;;;9.10;;
40707;SDS011;26392;42.696;23.350;2023-04-03T10:23:46;25.55;;;10.38;;
40707;SDS011;26392;42.696;23.350;2023-04-03T10:32:13;19.48;;;8.75;;
40707;SDS011;26392;42.696;23.350;2023-04-03T10:34:43;15.75;;;9.05;;
40707;SDS011;26392;42.696;23.350;2023-04-03T10:39:57;13.50;;;7.65;;
40707;SDS011;26392;42.696;23.350;2023-04-03T10:42:46;20.57;;;8.23;;
40707;SDS011;26392;42.696;23.350;2023-04-03T10:56:30;14.93;;;8.23;;
40707;SDS011;26392;42.696;23.350;2023-04-03T11:01:45;19.45;;;7.78;;
40707;SDS011;26392;42.696;23.350;2023-04-03T11:04:15;14.88;;;5.75;;
40707;SDS011;26392;42.696;23.350;2023-04-03T11:06:57;14.38;;;5.72;;
40707;SDS011;26392;42.696;23.350;2023-04-03T11:09:28;16.92;;;4.93;;
40707;SDS011;26392;42.696;23.350;2023-04-03T11:12:00;12.98;;;4.22;;
40707;SDS011;26392;42.696;23.350;2023-04-03T11:14:33;12.15;;;4.57;;
40707;SDS011;26392;42.696;23.350;2023-04-03T11:17:11;8.15;;;4.38;;
40707;SDS011;26392;42.696;23.350;2023-04-03T11:22:36;4.28;;;2.90;;
40707;SDS011;26392;42.696;23.350;2023-04-03T11:27:43;5.28;;;2.95;;
40707;SDS011;26392;42.696;23.350;2023-04-03T11:30:19;6.40;;;3.03;;
40707;SDS011;26392;42.696;23.350;2023-04-03T11:35:42;8.02;;;3.70;;
40707;SDS011;26392;42.696;23.350;2023-04-03T11:38:14;4.15;;;3.38;;
40707;SDS011;26392;42.696;23.350;2023-04-03T11:40:46;5.22;;;3.03;;
40707;SDS011;26392;42.696;23.350;2023-04-03T11:45:55;6.57;;;3.45;;
40707;SDS011;26392;42.696;23.350;2023-04-03T11:50:53;6.22;;;3.00;;
40707;SDS011;26392;42.696;23.350;2023-04-03T11:53:35;4.65;;;2.80;;
40707;SDS011;26392;42.696;23.350;2023-04-03T12:04:19;4.88;;;3.25;;
40707;SDS011;26392;42.696;23.350;2023-04-03T12:09:27;6.45;;;2.75;;
40707;SDS011;26392;42.696;23.350;2023-04-03T12:11:56;4.13;;;3.15;;
40707;SDS011;26392;42.696;23.350;2023-04-03T12:14:24;4.22;;;2.25;;
40707;SDS011;26392;42.696;23.350;2023-04-03T12:16:55;3.33;;;2.30;;
40707;SDS011;26392;42.696;23.350;2023-04-03T12:19:38;4.93;;;2.70;;
40707;SDS011;26392;42.696;23.350;2023-04-03T12:22:11;3.97;;;2.47;;
40707;SDS011;26392;42.696;23.350;2023-04-03T12:24:39;3.72;;;2.72;;
40707;SDS011;26392;42.696;23.350;2023-04-03T12:32:41;3.65;;;2.63;;
40707;SDS011;26392;42.696;23.350;2023-04-03T12:35:35;4.63;;;3.10;;
40707;SDS011;26392;42.696;23.350;2023-04-03T12:46:07;8.13;;;4.28;;
40707;SDS011;26392;42.696;23.350;2023-04-03T12:51:17;6.65;;;4.00;;
40707;SDS011;26392;42.696;23.350;2023-04-03T12:53:46;8.38;;;4.15;;
40707;SDS011;26392;42.696;23.350;2023-04-03T12:58:45;7.50;;;4.32;;
40707;SDS011;26392;42.696;23.350;2023-04-03T13:01:12;9.27;;;4.25;;
40707;SDS011;26392;42.696;23.350;2023-04-03T13:03:47;7.90;;;4.22;;
40707;SDS011;26392;42.696;23.350;2023-04-03T13:06:26;18.63;;;5.82;;
40707;SDS011;26392;42.696;23.350;2023-04-03T13:08:56;11.05;;;5.88;;
40707;SDS011;26392;42.696;23.350;2023-04-03T13:11:24;11.82;;;6.07;;
40707;SDS011;26392;42.696;23.350;2023-04-03T13:13:58;13.52;;;6.47;;
40707;SDS011;26392;42.696;23.350;2023-04-03T13:16:30;13.75;;;6.13;;
40707;SDS011;26392;42.696;23.350;2023-04-03T13:18:57;10.50;;;6.50;;
40707;SDS011;26392;42.696;23.350;2023-04-03T13:21:26;15.43;;;6.80;;
40707;SDS011;26392;42.696;23.350;2023-04-03T13:23:56;11.73;;;7.38;;
40707;SDS011;26392;42.696;23.350;2023-04-03T13:26:26;16.35;;;7.13;;
40707;SDS011;26392;42.696;23.350;2023-04-03T13:28:59;16.92;;;9.10;;
40707;SDS011;26392;42.696;23.350;2023-04-03T13:31:32;30.15;;;18.42;;
40707;SDS011;26392;42.696;23.350;2023-04-03T13:36:35;27.88;;;16.63;;
40707;SDS011;26392;42.696;23.350;2023-04-03T13:39:06;16.98;;;9.85;;
40707;SDS011;26392;42.696;23.350;2023-04-03T13:41:36;12.40;;;6.65;;
40707;SDS011;26392;42.696;23.350;2023-04-03T13:46:54;11.48;;;5.78;;
40707;SDS011;26392;42.696;23.350;2023-04-03T13:52:23;12.95;;;6.53;;
40707;SDS011;26392;42.696;23.350;2023-04-03T13:54:47;8.73;;;5.45;;
40707;SDS011;26392;42.696;23.350;2023-04-03T13:57:16;9.45;;;5.45;;
40707;SDS011;26392;42.696;23.350;2023-04-03T13:59:42;17.13;;;6.22;;
40707;SDS011;26392;42.696;23.350;2023-04-03T14:07:02;16.13;;;7.30;;
40707;SDS011;26392;42.696;23.350;2023-04-03T14:09:28;17.67;;;8.40;;
40707;SDS011;26392;42.696;23.350;2023-04-03T14:11:54;20.50;;;9.65;;
40707;SDS011;26392;42.696;23.350;2023-04-03T14:14:26;11.23;;;7.25;;
40707;SDS011;26392;42.696;23.350;2023-04-03T14:16:56;13.30;;;7.55;;
40707;SDS011;26392;42.696;23.350;2023-04-03T14:19:28;12.48;;;6.28;;
40707;SDS011;26392;42.696;23.350;2023-04-03T14:21:56;10.57;;;6.10;;
40707;SDS011;26392;42.696;23.350;2023-04-03T14:24:22;11.20;;;5.28;;
40707;SDS011;26392;42.696;23.350;2023-04-03T14:26:49;8.63;;;5.32;;
40707;SDS011;26392;42.696;23.350;2023-04-03T14:29:15;10.27;;;5.13;;
40707;SDS011;26392;42.696;23.350;2023-04-03T14:31:41;9.07;;;5.80;;
40707;SDS011;26392;42.696;23.350;2023-04-03T14:34:09;7.93;;;4.53;;
40707;SDS011;26392;42.696;23.350;2023-04-03T14:36:36;6.82;;;4.55;;
40707;SDS011;26392;42.696;23.350;2023-04-03T14:39:03;8.98;;;4.13;;
40707;SDS011;26392;42.696;23.350;2023-04-03T14:41:32;10.27;;;5.82;;
40707;SDS011;26392;42.696;23.350;2023-04-03T14:43:58;10.68;;;5.68;;
40707;SDS011;26392;42.696;23.350;2023-04-03T14:46:25;6.13;;;4.68;;
40707;SDS011;26392;42.696;23.350;2023-04-03T14:48:54;8.38;;;5.18;;
40707;SDS011;26392;42.696;23.350;2023-04-03T14:51:20;9.18;;;5.72;;
40707;SDS011;26392;42.696;23.350;2023-04-03T14:53:45;14.27;;;6.78;;
40707;SDS011;26392;42.696;23.350;2023-04-03T14:58:37;15.10;;;7.57;;
40707;SDS011;26392;42.696;23.350;2023-04-03T15:01:02;10.10;;;5.30;;
40707;SDS011;26392;42.696;23.350;2023-04-03T15:03:28;10.20;;;5.53;;
40707;SDS011;26392;42.696;23.350;2023-04-03T15:05:53;6.53;;;4.70;;
40707;SDS011;26392;42.696;23.350;2023-04-03T15:08:23;8.65;;;4.60;;
40707;SDS011;26392;42.696;23.350;2023-04-03T15:10:51;9.38;;;4.75;;
40707;SDS011;26392;42.696;23.350;2023-04-03T15:13:18;8.65;;;5.75;;
40707;SDS011;26392;42.696;23.350;2023-04-03T15:15:44;6.70;;;4.93;;
40707;SDS011;26392;42.696;23.350;2023-04-03T15:18:15;7.60;;;5.40;;
40707;SDS011;26392;42.696;23.350;2023-04-03T15:20:43;6.95;;;5.10;;
40707;SDS011;26392;42.696;23.350;2023-04-03T15:23:10;6.32;;;4.20;;
40707;SDS011;26392;42.696;23.350;2023-04-03T15:25:38;5.70;;;3.80;;
40707;SDS011;26392;42.696;23.350;2023-04-03T15:28:04;6.10;;;4.18;;
40707;SDS011;26392;42.696;23.350;2023-04-03T15:30:30;7.28;;;4.75;;
40707;SDS011;26392;42.696;23.350;2023-04-03T15:32:56;11.13;;;4.82;;
40707;SDS011;26392;42.696;23.350;2023-04-03T15:35:23;8.15;;;4.95;;
40707;SDS011;26392;42.696;23.350;2023-04-03T15:37:48;11.18;;;6.00;;
40707;SDS011;26392;42.696;23.350;2023-04-03T15:40:14;8.82;;;5.72;;
40707;SDS011;26392;42.696;23.350;2023-04-03T15:42:40;8.18;;;5.38;;
40707;SDS011;26392;42.696;23.350;2023-04-03T15:45:05;9.13;;;5.88;;
40707;SDS011;26392;42.696;23.350;2023-04-03T15:47:32;8.38;;;5.28;;
40707;SDS011;26392;42.696;23.350;2023-04-03T15:49:57;8.10;;;5.13;;
40707;SDS011;26392;42.696;23.350;2023-04-03T15:52:23;8.05;;;5.07;;
40707;SDS011;26392;42.696;23.350;2023-04-03T15:54:48;8.85;;;4.63;;
40707;SDS011;26392;42.696;23.350;2023-04-03T15:57:14;11.27;;;5.40;;
40707;SDS011;26392;42.696;23.350;2023-04-03T15:59:39;9.50;;;5.60;;
40707;SDS011;26392;42.696;23.350;2023-04-03T16:02:05;7.95;;;4.65;;
40707;SDS011;26392;42.696;23.350;2023-04-03T16:04:35;10.88;;;5.88;;
40707;SDS011;26392;42.696;23.350;2023-04-03T16:07:03;10.27;;;5.65;;
40707;SDS011;26392;42.696;23.350;2023-04-03T16:09:30;10.18;;;6.20;;
40707;SDS011;26392;42.696;23.350;2023-04-03T16:11:57;17.48;;;8.30;;
40707;SDS011;26392;42.696;23.350;2023-04-03T16:14:23;14.30;;;7.68;;
40707;SDS011;26392;42.696;23.350;2023-04-03T16:16:48;14.60;;;8.65;;
40707;SDS011;26392;42.696;23.350;2023-04-03T16:19:13;24.42;;;10.73;;
40707;SDS011;26392;42.696;23.350;2023-04-03T16:21:39;20.40;;;11.27;;
40707;SDS011;26392;42.696;23.350;2023-04-03T16:24:05;23.13;;;12.57;;
40707;SDS011;26392;42.696;23.350;2023-04-03T16:26:31;23.65;;;13.30;;
40707;SDS011;26392;42.696;23.350;2023-04-03T16:28:56;26.23;;;14.45;;